Patcona II — WDC2170 — position and weather

sailwx.info

Track history (hours):
 
Tides and Currents Weather Stations Pressure Air Temp Water Temp Dewpoint Dewpoint Depression Visibility Wind Speed Wind Dir Waves Ship Positions

Patcona II

Owner: Connolly-Pacific Co, long beach, CA. More information available from US FCC via Universal Licensing System and Coast Guard Vessel Documentation Center.

Last reported at 2017-Jun-14 21:39 UTC. Time now 2017-Jun-25 20:47 UTC.
Position N 33°46' W 118°13'.
Warning: this ship's position is 10 days out of date.

Length 25 m; draft 3.5 m.

Type: Towing. MMSI: 366988960.

Date/timePositionNaut miles runAvg speedWind from/ knotsBaromVisibWave heightAir tempDewpointWater temp
2017-Jun-14 21:39N 33°46' W 118°13'0 2.9
2017-Jun-14 21:31N 33°46' W 118°13'3 5.7
2017-Jun-14 20:59N 33°44' W 118°16'2 3.3
2017-Jun-14 20:30N 33°43' W 118°14'2 3.6
2017-Jun-14 19:58N 33°44' W 118°16'0 0.1
2017-Jun-14 19:28N 33°44' W 118°16'0 0.0
2017-Jun-14 18:58N 33°44' W 118°16'0 0.0
2017-Jun-14 18:28N 33°44' W 118°16'0 0.7
2017-Jun-14 18:00N 33°44' W 118°16'3 5.4
2017-Jun-14 17:30N 33°45' W 118°13'1 1.2
2017-Jun-14 17:00N 33°46' W 118°13'3 5.0
2017-Jun-14 16:30N 33°43' W 118°14'1 2.4
2017-Jun-14 15:53N 33°43' W 118°15'0 0.3
2017-Jun-14 15:30N 33°43' W 118°15'0 0.2
2017-Jun-14 15:00N 33°43' W 118°15'1 2.5
2017-Jun-14 14:29N 33°43' W 118°14'  
2017-Jun-08 06:58N 33°43' W 118°15'2 2.5
2017-Jun-08 06:19N 33°41' W 118°14'2 5.6
2017-Jun-08 05:56N 33°39' W 118°14'2 5.6
2017-Jun-08 05:30N 33°37' W 118°15'3 5.8
2017-Jun-08 04:59N 33°34' W 118°16'5 5.7
2017-Jun-08 04:11N 33°29' W 118°16'1 5.8
2017-Jun-08 04:00N 33°28' W 118°16'3 5.9
2017-Jun-08 03:27N 33°25' W 118°17'3 6.0
2017-Jun-08 02:59N 33°22' W 118°17'2 5.0
2017-Jun-08 02:30N 33°20' W 118°18'1 1.9
2017-Jun-08 01:59N 33°19' W 118°18'0 0.2
2017-Jun-08 00:16N 33°19' W 118°18'0 0.0
2017-Jun-07 23:46N 33°19' W 118°18'0 0.0
2017-Jun-07 23:22N 33°19' W 118°18'0 0.0
2017-Jun-07 22:39N 33°19' W 118°18'0 0.0
2017-Jun-07 22:21N 33°19' W 118°18'0 0.0
2017-Jun-07 21:58N 33°19' W 118°18'0 0.0
2017-Jun-07 21:28N 33°19' W 118°18'0 0.0
2017-Jun-07 20:58N 33°19' W 118°18'0 0.0
2017-Jun-07 19:28N 33°19' W 118°18'0 0.0
2017-Jun-07 18:45N 33°19' W 118°18'0 0.1
2017-Jun-07 18:15N 33°19' W 118°18'0 0.0
2017-Jun-07 17:40N 33°19' W 118°18'0 0.0
2017-Jun-07 16:51N 33°19' W 118°18'0 0.0
2017-Jun-07 16:28N 33°19' W 118°18'0 0.1
2017-Jun-07 15:58N 33°19' W 118°18'0 0.6
2017-Jun-07 15:30N 33°19' W 118°18'0 0.2
2017-Jun-07 14:59N 33°19' W 118°18'0 0.7
2017-Jun-07 14:28N 33°19' W 118°18'27 1.1
2017-Jun-06 13:29N 33°46' W 118°13'0 0.0
2017-Jun-06 10:47N 33°46' W 118°13'0 0.0
2017-Jun-06 09:05N 33°46' W 118°13'0 0.0
2017-Jun-06 08:53N 33°46' W 118°13'0 0.0
2017-Jun-06 08:29N 33°46' W 118°13'0 0.0
2017-Jun-06 07:47N 33°46' W 118°13'0 0.0
2017-Jun-06 07:23N 33°46' W 118°13'0 0.0
2017-Jun-06 06:53N 33°46' W 118°13'0 0.0
2017-Jun-06 06:23N 33°46' W 118°13'0 0.0
2017-Jun-06 03:47N 33°46' W 118°13'0 0.0
2017-Jun-06 03:23N 33°46' W 118°13'0 0.0
2017-Jun-06 02:59N 33°46' W 118°13'0 0.0
2017-Jun-06 02:17N 33°46' W 118°13'0 0.0
2017-Jun-06 00:59N 33°46' W 118°13'0 0.0
2017-Jun-06 00:23N 33°46' W 118°13'0 0.0
2017-Jun-05 23:41N 33°46' W 118°13'0 0.0
2017-Jun-05 23:29N 33°46' W 118°13'0 0.0
2017-Jun-05 22:59N 33°46' W 118°13'0 0.0
2017-Jun-05 21:35N 33°46' W 118°13'0 0.0
2017-Jun-05 21:29N 33°46' W 118°13'0 0.0
2017-Jun-05 20:53N 33°46' W 118°13'0 0.0
2017-Jun-05 20:29N 33°46' W 118°13'0 0.0
2017-Jun-05 19:56N 33°46' W 118°13'0 0.0
2017-Jun-05 19:29N 33°46' W 118°13'0 0.0
2017-Jun-05 18:11N 33°46' W 118°13'0 0.0
2017-Jun-05 17:59N 33°46' W 118°13'0 0.0
2017-Jun-05 16:23N 33°46' W 118°13'0 0.0
2017-Jun-05 15:53N 33°46' W 118°13'0 0.0
2017-Jun-05 15:29N 33°46' W 118°13'0 0.0
2017-Jun-05 14:41N 33°46' W 118°13'0 0.0
2017-Jun-05 13:59N 33°46' W 118°13'0 0.0
2017-Jun-05 13:29N 33°46' W 118°13'0 0.0
2017-Jun-05 12:53N 33°46' W 118°13'0 0.0
2017-Jun-05 12:23N 33°46' W 118°13'0 0.0
2017-Jun-05 11:59N 33°46' W 118°13'0 0.0
2017-Jun-05 11:29N 33°46' W 118°13'0 0.0
2017-Jun-05 10:59N 33°46' W 118°13'0 0.0
2017-Jun-05 10:29N 33°46' W 118°13'0 0.0
2017-Jun-05 09:59N 33°46' W 118°13'0 0.0
2017-Jun-05 09:29N 33°46' W 118°13'0 0.0
2017-Jun-05 08:38N 33°46' W 118°13'0 0.0
2017-Jun-05 08:26N 33°46' W 118°13'0 0.0
2017-Jun-05 07:53N 33°46' W 118°13'0 0.0
2017-Jun-05 07:29N 33°46' W 118°13'0 0.0
2017-Jun-05 06:59N 33°46' W 118°13'0 0.0
2017-Jun-05 06:29N 33°46' W 118°13'0 0.0
2017-Jun-05 05:59N 33°46' W 118°13'0 0.0
2017-Jun-05 05:29N 33°46' W 118°13'0 0.0
2017-Jun-05 04:59N 33°46' W 118°13'0 0.0
2017-Jun-05 04:29N 33°46' W 118°13'0 0.0
2017-Jun-05 03:59N 33°46' W 118°13'0 0.0
2017-Jun-05 03:29N 33°46' W 118°13'0 0.0
2017-Jun-05 02:59N 33°46' W 118°13'0 0.0
2017-Jun-05 02:29N 33°46' W 118°13'0 0.0
2017-Jun-05 01:59N 33°46' W 118°13'0 0.0
2017-Jun-05 01:29N 33°46' W 118°13'0 0.0
2017-Jun-05 00:59N 33°46' W 118°13'0 0.0
2017-Jun-05 00:26N 33°46' W 118°13'0 0.0
2017-Jun-04 23:59N 33°46' W 118°13'0 0.0
2017-Jun-04 23:29N 33°46' W 118°13'0 0.0
2017-Jun-04 22:59N 33°46' W 118°13'0 0.0
2017-Jun-04 22:29N 33°46' W 118°13'  
Track history (hours):
 
Tides and Currents Weather Stations Pressure Air Temp Water Temp Dewpoint Dewpoint Depression Visibility Wind Speed Wind Dir Waves Ship Positions

Patcona II

Owner: Connolly-Pacific Co, long beach, CA. More information available from US FCC via Universal Licensing System and Coast Guard Vessel Documentation Center.

Last reported at 2017-Jun-14 21:39 UTC. Time now 2017-Jun-25 20:47 UTC.
Position N 33°46' W 118°13'.
Warning: this ship's position is 10 days out of date.

Length 25 m; draft 3.5 m.

Type: Towing. MMSI: 366988960.

Date/timePositionNaut miles runAvg speedWind from/ knotsBaromVisibWave heightAir tempDewpointWater temp
2017-Jun-14 21:39N 33°46' W 118°13'0 2.9
2017-Jun-14 21:31N 33°46' W 118°13'3 5.7
2017-Jun-14 20:59N 33°44' W 118°16'2 3.3
2017-Jun-14 20:30N 33°43' W 118°14'2 3.6
2017-Jun-14 19:58N 33°44' W 118°16'0 0.1
2017-Jun-14 19:28N 33°44' W 118°16'0 0.0
2017-Jun-14 18:58N 33°44' W 118°16'0 0.0
2017-Jun-14 18:28N 33°44' W 118°16'0 0.7
2017-Jun-14 18:00N 33°44' W 118°16'3 5.4
2017-Jun-14 17:30N 33°45' W 118°13'1 1.2
2017-Jun-14 17:00N 33°46' W 118°13'3 5.0
2017-Jun-14 16:30N 33°43' W 118°14'1 2.4
2017-Jun-14 15:53N 33°43' W 118°15'0 0.3
2017-Jun-14 15:30N 33°43' W 118°15'0 0.2
2017-Jun-14 15:00N 33°43' W 118°15'1 2.5
2017-Jun-14 14:29N 33°43' W 118°14'  
2017-Jun-08 06:58N 33°43' W 118°15'2 2.5
2017-Jun-08 06:19N 33°41' W 118°14'2 5.6
2017-Jun-08 05:56N 33°39' W 118°14'2 5.6
2017-Jun-08 05:30N 33°37' W 118°15'3 5.8
2017-Jun-08 04:59N 33°34' W 118°16'5 5.7
2017-Jun-08 04:11N 33°29' W 118°16'1 5.8
2017-Jun-08 04:00N 33°28' W 118°16'3 5.9
2017-Jun-08 03:27N 33°25' W 118°17'3 6.0
2017-Jun-08 02:59N 33°22' W 118°17'2 5.0
2017-Jun-08 02:30N 33°20' W 118°18'1 1.9
2017-Jun-08 01:59N 33°19' W 118°18'0 0.2
2017-Jun-08 00:16N 33°19' W 118°18'0 0.0
2017-Jun-07 23:46N 33°19' W 118°18'0 0.0
2017-Jun-07 23:22N 33°19' W 118°18'0 0.0
2017-Jun-07 22:39N 33°19' W 118°18'0 0.0
2017-Jun-07 22:21N 33°19' W 118°18'0 0.0
2017-Jun-07 21:58N 33°19' W 118°18'0 0.0
2017-Jun-07 21:28N 33°19' W 118°18'0 0.0
2017-Jun-07 20:58N 33°19' W 118°18'0 0.0
2017-Jun-07 19:28N 33°19' W 118°18'0 0.0
2017-Jun-07 18:45N 33°19' W 118°18'0 0.1
2017-Jun-07 18:15N 33°19' W 118°18'0 0.0
2017-Jun-07 17:40N 33°19' W 118°18'0 0.0
2017-Jun-07 16:51N 33°19' W 118°18'0 0.0
2017-Jun-07 16:28N 33°19' W 118°18'0 0.1
2017-Jun-07 15:58N 33°19' W 118°18'0 0.6
2017-Jun-07 15:30N 33°19' W 118°18'0 0.2
2017-Jun-07 14:59N 33°19' W 118°18'0 0.7
2017-Jun-07 14:28N 33°19' W 118°18'27 1.1
2017-Jun-06 13:29N 33°46' W 118°13'0 0.0
2017-Jun-06 10:47N 33°46' W 118°13'0 0.0
2017-Jun-06 09:05N 33°46' W 118°13'0 0.0
2017-Jun-06 08:53N 33°46' W 118°13'0 0.0
2017-Jun-06 08:29N 33°46' W 118°13'0 0.0
2017-Jun-06 07:47N 33°46' W 118°13'0 0.0
2017-Jun-06 07:23N 33°46' W 118°13'0 0.0
2017-Jun-06 06:53N 33°46' W 118°13'0 0.0
2017-Jun-06 06:23N 33°46' W 118°13'0 0.0
2017-Jun-06 03:47N 33°46' W 118°13'0 0.0
2017-Jun-06 03:23N 33°46' W 118°13'0 0.0
2017-Jun-06 02:59N 33°46' W 118°13'0 0.0
2017-Jun-06 02:17N 33°46' W 118°13'0 0.0
2017-Jun-06 00:59N 33°46' W 118°13'0 0.0
2017-Jun-06 00:23N 33°46' W 118°13'0 0.0
2017-Jun-05 23:41N 33°46' W 118°13'0 0.0
2017-Jun-05 23:29N 33°46' W 118°13'0 0.0
2017-Jun-05 22:59N 33°46' W 118°13'0 0.0
2017-Jun-05 21:35N 33°46' W 118°13'0 0.0
2017-Jun-05 21:29N 33°46' W 118°13'0 0.0
2017-Jun-05 20:53N 33°46' W 118°13'0 0.0
2017-Jun-05 20:29N 33°46' W 118°13'0 0.0
2017-Jun-05 19:56N 33°46' W 118°13'0 0.0
2017-Jun-05 19:29N 33°46' W 118°13'0 0.0
2017-Jun-05 18:11N 33°46' W 118°13'0 0.0
2017-Jun-05 17:59N 33°46' W 118°13'0 0.0
2017-Jun-05 16:23N 33°46' W 118°13'0 0.0
2017-Jun-05 15:53N 33°46' W 118°13'0 0.0
2017-Jun-05 15:29N 33°46' W 118°13'0 0.0
2017-Jun-05 14:41N 33°46' W 118°13'0 0.0
2017-Jun-05 13:59N 33°46' W 118°13'0 0.0
2017-Jun-05 13:29N 33°46' W 118°13'0 0.0
2017-Jun-05 12:53N 33°46' W 118°13'0 0.0
2017-Jun-05 12:23N 33°46' W 118°13'0 0.0
2017-Jun-05 11:59N 33°46' W 118°13'0 0.0
2017-Jun-05 11:29N 33°46' W 118°13'0 0.0
2017-Jun-05 10:59N 33°46' W 118°13'0 0.0
2017-Jun-05 10:29N 33°46' W 118°13'0 0.0
2017-Jun-05 09:59N 33°46' W 118°13'0 0.0
2017-Jun-05 09:29N 33°46' W 118°13'0 0.0
2017-Jun-05 08:38N 33°46' W 118°13'0 0.0
2017-Jun-05 08:26N 33°46' W 118°13'0 0.0
2017-Jun-05 07:53N 33°46' W 118°13'0 0.0
2017-Jun-05 07:29N 33°46' W 118°13'0 0.0
2017-Jun-05 06:59N 33°46' W 118°13'0 0.0
2017-Jun-05 06:29N 33°46' W 118°13'0 0.0
2017-Jun-05 05:59N 33°46' W 118°13'0 0.0
2017-Jun-05 05:29N 33°46' W 118°13'0 0.0
2017-Jun-05 04:59N 33°46' W 118°13'0 0.0
2017-Jun-05 04:29N 33°46' W 118°13'0 0.0
2017-Jun-05 03:59N 33°46' W 118°13'0 0.0
2017-Jun-05 03:29N 33°46' W 118°13'0 0.0
2017-Jun-05 02:59N 33°46' W 118°13'0 0.0
2017-Jun-05 02:29N 33°46' W 118°13'0 0.0
2017-Jun-05 01:59N 33°46' W 118°13'0 0.0
2017-Jun-05 01:29N 33°46' W 118°13'0 0.0
2017-Jun-05 00:59N 33°46' W 118°13'0 0.0
2017-Jun-05 00:26N 33°46' W 118°13'0 0.0
2017-Jun-04 23:59N 33°46' W 118°13'0 0.0
2017-Jun-04 23:29N 33°46' W 118°13'0 0.0
2017-Jun-04 22:59N 33°46' W 118°13'0 0.0
2017-Jun-04 22:29N 33°46' W 118°13'  

Dump ship's entire track history